Search for airport 
image banner adimage banner adimage banner ad
image banner ad

95CL - Verdugo Hills Hospital

Located in Glendale, United States

ICAO - 95CL, IATA -

Data provided by Airmate  

General information

Coordinates: N34°12'15" W118°13'2"
Elevation is 1430 feet MSL.
Magnetic variation is 14° East
View others Airports in California

Operational data

Special qualification required
Current time UTC:
Current local time:
Weather at : KBUR - Bob Hope ( 13 km )
METAR: KBUR 210253Z 13005KT 10SM CLR 25/13 A2993 RMK AO2 SLP123 T02500133 53019 $
TAF: KBUR 202334Z 2100/2124 16011KT P6SM SKC FM210300 13005KT P6SM SKC FM210800 VRB03KT P6SM SKC FM212100 17010KT P6SM SKC
View NOTAMs / SUP AIP / TFR affecting this airport [VIEW]
Communications frequencies: [VIEW]

Runways:

Airport contact information

Address: Glendale United States

Satellite view of 95CL